»·PEaware :: N182BL KVCV-KSNA

N182BL :: KVCV-KSNA

FLIGHT INFORMATION

Flight Status: Arrived
Operator: Privately registered:
United States
More flights under this callsign
Pilot: James Devine (13710)
Aircraft: BEECH AIRCRAFT BARON
(BE58)
More flights by this aircraft type
Origin: KVCV Socal Logistics
United States
Destination: KSNA John Wayne-Orange Co
United States
More flights between these airports :: More routes between these airports
Route:
File this flight plan on PilotEdge
Remarks:
Altitude:
(Current/Filed)
9,500ft
Speed:
(Current/Filed)
200kts
Departed: 21-Apr-17 11:50 AM
Arrived: 21-Apr-17 12:14 PM
Distance/Time
Traveled:
61nm/0:24
Distance/Time
To Go:
Arrived

Flight Plot

Page will automatically refresh every two minutes.


Map Options




Map Legend


Flown Route
Filed Route
Departure Airport
Arrival Airport
Navaid (VOR, NDB)
Fix

Horizontal Profiles

Position Reports

Time Latitude Longitude Heading Altitude Ground
Speed
21-Apr-17 11:23 34.588337 -117.376330 313 2887ft 0kts
21-Apr-17 11:24 34.588337 -117.376330 313 2887ft 0kts
21-Apr-17 11:25 34.588337 -117.376330 313 2887ft 0kts
21-Apr-17 11:26 34.588337 -117.376330 313 2887ft 0kts
21-Apr-17 11:27 34.588337 -117.376330 313 2887ft 0kts
21-Apr-17 11:28 34.588337 -117.376330 313 2887ft 0kts
21-Apr-17 11:29 34.588337 -117.376330 313 2887ft 0kts
21-Apr-17 11:30 34.588337 -117.376330 313 2887ft 0kts
21-Apr-17 11:31 34.588337 -117.376330 313 2887ft 0kts
21-Apr-17 11:32 34.588337 -117.376330 313 2887ft 0kts
21-Apr-17 11:33 34.588337 -117.376330 313 2887ft 0kts
21-Apr-17 11:34 34.588337 -117.376330 313 2887ft 0kts
21-Apr-17 11:35 34.588337 -117.376330 313 2887ft 0kts
21-Apr-17 11:36 34.588337 -117.376330 313 2887ft 0kts
21-Apr-17 11:37 34.588337 -117.376330 313 2887ft 0kts
21-Apr-17 11:38 34.588337 -117.376330 313 2887ft 0kts
21-Apr-17 11:39 34.588337 -117.376330 313 2887ft 0kts
21-Apr-17 11:40 34.588337 -117.376330 313 2887ft 0kts
21-Apr-17 11:41 34.588337 -117.376330 313 2887ft 0kts
21-Apr-17 11:42 34.588337 -117.376330 313 2887ft 0kts
21-Apr-17 11:43 34.588337 -117.376330 313 2887ft 0kts
21-Apr-17 11:44 34.588337 -117.376330 313 2887ft 0kts
21-Apr-17 11:45 34.588337 -117.376330 313 2887ft 0kts
21-Apr-17 11:46 34.588337 -117.376330 313 2887ft 0kts
21-Apr-17 11:47 34.587661 -117.378993 224 2887ft 25kts
21-Apr-17 11:48 34.583143 -117.385198 268 2887ft 0kts
21-Apr-17 11:49 34.583143 -117.385198 268 2887ft 0kts
21-Apr-17 11:50 34.583143 -117.385198 268 2887ft 0kts
21-Apr-17 11:51 34.583144 -117.385680 264 2887ft 10kts
21-Apr-17 11:52 34.592862 -117.375761 43 3073ft 117kts
21-Apr-17 11:53 34.614585 -117.347436 75 4387ft 124kts
21-Apr-17 11:54 34.586565 -117.333545 214 5791ft 141kts
21-Apr-17 11:55 34.548298 -117.350956 201 6830ft 152kts
21-Apr-17 11:56 34.507195 -117.367658 186 7503ft 166kts
21-Apr-17 11:57 34.458281 -117.376867 191 7563ft 187kts
21-Apr-17 11:58 34.407278 -117.391452 195 7530ft 191kts
21-Apr-17 11:59 34.355739 -117.408751 193 7475ft 193kts
21-Apr-17 12:00 34.303766 -117.424670 191 7415ft 193kts
21-Apr-17 12:01 34.252393 -117.439173 190 7579ft 187kts
21-Apr-17 12:02 34.201634 -117.453129 190 7639ft 190kts
21-Apr-17 12:03 34.149068 -117.467265 194 7504ft 195kts
21-Apr-17 12:04 34.100742 -117.491557 217 7503ft 189kts
21-Apr-17 12:05 34.057112 -117.526889 216 7502ft 189kts
21-Apr-17 12:06 34.013299 -117.561376 217 7502ft 189kts
21-Apr-17 12:07 33.969455 -117.594399 213 7001ft 189kts
21-Apr-17 12:08 33.925857 -117.628963 226 6402ft 187kts
21-Apr-17 12:09 33.889625 -117.673351 226 5820ft 187kts
21-Apr-17 12:10 33.852063 -117.716844 223 5094ft 185kts
21-Apr-17 12:11 33.814877 -117.758731 229 4062ft 182kts
21-Apr-17 12:12 33.778530 -117.798952 213 3019ft 191kts
21-Apr-17 12:13 33.736141 -117.826762 210 1656ft 165kts
21-Apr-17 12:14 33.705949 -117.847565 209 666ft 99kts
21-Apr-17 12:15 33.682495 -117.862651 208 100ft 87kts
21-Apr-17 12:16 33.673910 -117.867578 134 59ft 0kts
21-Apr-17 12:16 33.669842 -117.870183 220 59ft 32kts
21-Apr-17 12:18 33.667042 -117.871434 305 59ft 0kts
21-Apr-17 12:18 33.667042 -117.871434 305 59ft 0kts

Navigation Log

Ident Type
1. KVCV Airport
2. KSNA Airport